sensor_id;sensor_type;location;lat;lon;timestamp;P1;durP1;ratioP1;P2;durP2;ratioP2
20393;SDS011;10356;50.544;9.642;2023-03-04T00:02:14;31.73;;;16.47;;
20393;SDS011;10356;50.544;9.642;2023-03-04T00:04:41;31.57;;;16.10;;
20393;SDS011;10356;50.544;9.642;2023-03-04T00:07:09;31.50;;;16.07;;
20393;SDS011;10356;50.544;9.642;2023-03-04T00:09:36;36.27;;;17.53;;
20393;SDS011;10356;50.544;9.642;2023-03-04T00:12:03;31.67;;;16.83;;
20393;SDS011;10356;50.544;9.642;2023-03-04T00:14:31;30.80;;;16.53;;
20393;SDS011;10356;50.544;9.642;2023-03-04T00:16:58;32.23;;;16.60;;
20393;SDS011;10356;50.544;9.642;2023-03-04T00:19:27;32.37;;;16.20;;
20393;SDS011;10356;50.544;9.642;2023-03-04T00:21:54;35.97;;;17.20;;
20393;SDS011;10356;50.544;9.642;2023-03-04T00:24:22;35.90;;;17.77;;
20393;SDS011;10356;50.544;9.642;2023-03-04T00:26:49;37.33;;;16.60;;
20393;SDS011;10356;50.544;9.642;2023-03-04T00:29:15;31.43;;;17.13;;
20393;SDS011;10356;50.544;9.642;2023-03-04T00:31:42;31.87;;;16.77;;
20393;SDS011;10356;50.544;9.642;2023-03-04T00:34:08;32.30;;;15.67;;
20393;SDS011;10356;50.544;9.642;2023-03-04T00:36:35;31.53;;;16.27;;
20393;SDS011;10356;50.544;9.642;2023-03-04T00:39:01;29.17;;;16.20;;
20393;SDS011;10356;50.544;9.642;2023-03-04T00:41:30;34.80;;;17.43;;
20393;SDS011;10356;50.544;9.642;2023-03-04T00:43:56;36.37;;;16.67;;
20393;SDS011;10356;50.544;9.642;2023-03-04T00:46:23;27.93;;;15.33;;
20393;SDS011;10356;50.544;9.642;2023-03-04T00:48:50;29.70;;;16.00;;
20393;SDS011;10356;50.544;9.642;2023-03-04T00:51:16;32.83;;;15.43;;
20393;SDS011;10356;50.544;9.642;2023-03-04T00:53:43;29.93;;;15.80;;
20393;SDS011;10356;50.544;9.642;2023-03-04T00:56:09;34.17;;;16.73;;
20393;SDS011;10356;50.544;9.642;2023-03-04T00:58:37;32.53;;;16.73;;
20393;SDS011;10356;50.544;9.642;2023-03-04T01:01:04;32.73;;;16.63;;
20393;SDS011;10356;50.544;9.642;2023-03-04T01:03:31;31.33;;;15.50;;
20393;SDS011;10356;50.544;9.642;2023-03-04T01:05:58;31.03;;;15.33;;
20393;SDS011;10356;50.544;9.642;2023-03-04T01:08:26;34.10;;;16.73;;
20393;SDS011;10356;50.544;9.642;2023-03-04T01:10:52;33.83;;;16.93;;
20393;SDS011;10356;50.544;9.642;2023-03-04T01:13:19;35.83;;;17.33;;
20393;SDS011;10356;50.544;9.642;2023-03-04T01:15:49;38.03;;;19.00;;
20393;SDS011;10356;50.544;9.642;2023-03-04T01:18:15;34.43;;;17.30;;
20393;SDS011;10356;50.544;9.642;2023-03-04T01:20:42;31.57;;;17.00;;
20393;SDS011;10356;50.544;9.642;2023-03-04T01:23:09;32.93;;;16.63;;
20393;SDS011;10356;50.544;9.642;2023-03-04T01:25:35;31.53;;;15.37;;
20393;SDS011;10356;50.544;9.642;2023-03-04T01:28:02;31.87;;;14.87;;
20393;SDS011;10356;50.544;9.642;2023-03-04T01:30:29;28.60;;;15.93;;
20393;SDS011;10356;50.544;9.642;2023-03-04T01:32:57;29.47;;;15.43;;
20393;SDS011;10356;50.544;9.642;2023-03-04T01:35:24;33.80;;;17.00;;
20393;SDS011;10356;50.544;9.642;2023-03-04T01:37:50;30.03;;;15.77;;
20393;SDS011;10356;50.544;9.642;2023-03-04T01:40:17;32.93;;;16.07;;
20393;SDS011;10356;50.544;9.642;2023-03-04T01:42:44;36.67;;;17.20;;
20393;SDS011;10356;50.544;9.642;2023-03-04T01:45:12;34.67;;;17.23;;
20393;SDS011;10356;50.544;9.642;2023-03-04T01:47:41;33.93;;;15.87;;
20393;SDS011;10356;50.544;9.642;2023-03-04T01:50:15;30.77;;;15.70;;
20393;SDS011;10356;50.544;9.642;2023-03-04T01:52:46;33.03;;;16.53;;
20393;SDS011;10356;50.544;9.642;2023-03-04T01:55:16;29.53;;;15.70;;
20393;SDS011;10356;50.544;9.642;2023-03-04T01:57:44;30.63;;;16.27;;
20393;SDS011;10356;50.544;9.642;2023-03-04T02:00:19;35.10;;;16.67;;
20393;SDS011;10356;50.544;9.642;2023-03-04T02:02:49;31.43;;;16.93;;
20393;SDS011;10356;50.544;9.642;2023-03-04T02:05:19;31.93;;;16.73;;
20393;SDS011;10356;50.544;9.642;2023-03-04T02:07:46;30.63;;;16.03;;
20393;SDS011;10356;50.544;9.642;2023-03-04T02:10:14;34.03;;;16.73;;
20393;SDS011;10356;50.544;9.642;2023-03-04T02:12:40;34.53;;;17.20;;
20393;SDS011;10356;50.544;9.642;2023-03-04T02:15:07;34.63;;;17.30;;
20393;SDS011;10356;50.544;9.642;2023-03-04T02:17:34;32.70;;;17.73;;
20393;SDS011;10356;50.544;9.642;2023-03-04T02:20:02;31.43;;;17.20;;
20393;SDS011;10356;50.544;9.642;2023-03-04T02:22:41;31.53;;;17.63;;
20393;SDS011;10356;50.544;9.642;2023-03-04T02:25:14;32.50;;;17.10;;
20393;SDS011;10356;50.544;9.642;2023-03-04T02:27:47;33.57;;;16.83;;
20393;SDS011;10356;50.544;9.642;2023-03-04T02:30:15;31.97;;;17.03;;
20393;SDS011;10356;50.544;9.642;2023-03-04T02:32:43;35.60;;;17.60;;
20393;SDS011;10356;50.544;9.642;2023-03-04T02:35:12;35.00;;;17.17;;
20393;SDS011;10356;50.544;9.642;2023-03-04T02:37:41;32.67;;;16.03;;
20393;SDS011;10356;50.544;9.642;2023-03-04T02:40:08;29.57;;;17.30;;
20393;SDS011;10356;50.544;9.642;2023-03-04T02:42:42;29.67;;;16.40;;
20393;SDS011;10356;50.544;9.642;2023-03-04T02:48:02;27.30;;;16.13;;
20393;SDS011;10356;50.544;9.642;2023-03-04T02:50:32;33.97;;;17.37;;
20393;SDS011;10356;50.544;9.642;2023-03-04T02:53:01;34.57;;;17.27;;
20393;SDS011;10356;50.544;9.642;2023-03-04T02:55:28;35.40;;;18.33;;
20393;SDS011;10356;50.544;9.642;2023-03-04T02:57:56;36.50;;;18.07;;
20393;SDS011;10356;50.544;9.642;2023-03-04T03:00:23;37.97;;;19.17;;
20393;SDS011;10356;50.544;9.642;2023-03-04T03:02:51;35.60;;;18.30;;
20393;SDS011;10356;50.544;9.642;2023-03-04T03:05:18;35.67;;;17.07;;
20393;SDS011;10356;50.544;9.642;2023-03-04T03:07:45;39.20;;;18.93;;
20393;SDS011;10356;50.544;9.642;2023-03-04T03:10:11;39.37;;;19.27;;
20393;SDS011;10356;50.544;9.642;2023-03-04T03:12:38;34.77;;;18.53;;
20393;SDS011;10356;50.544;9.642;2023-03-04T03:15:05;35.63;;;19.20;;
20393;SDS011;10356;50.544;9.642;2023-03-04T03:17:32;37.07;;;18.70;;
20393;SDS011;10356;50.544;9.642;2023-03-04T03:20:00;38.93;;;19.20;;
20393;SDS011;10356;50.544;9.642;2023-03-04T03:22:27;38.13;;;19.97;;
20393;SDS011;10356;50.544;9.642;2023-03-04T03:24:54;35.70;;;19.27;;
20393;SDS011;10356;50.544;9.642;2023-03-04T03:27:21;35.23;;;18.63;;
20393;SDS011;10356;50.544;9.642;2023-03-04T03:29:47;36.80;;;20.03;;
20393;SDS011;10356;50.544;9.642;2023-03-04T03:32:14;39.47;;;19.20;;
20393;SDS011;10356;50.544;9.642;2023-03-04T03:34:41;33.93;;;19.43;;
20393;SDS011;10356;50.544;9.642;2023-03-04T03:37:09;33.40;;;16.93;;
20393;SDS011;10356;50.544;9.642;2023-03-04T03:39:35;34.77;;;18.50;;
20393;SDS011;10356;50.544;9.642;2023-03-04T03:42:02;33.53;;;18.87;;
20393;SDS011;10356;50.544;9.642;2023-03-04T03:44:29;39.57;;;19.00;;
20393;SDS011;10356;50.544;9.642;2023-03-04T03:46:55;43.33;;;19.20;;
20393;SDS011;10356;50.544;9.642;2023-03-04T03:49:22;32.70;;;18.17;;
20393;SDS011;10356;50.544;9.642;2023-03-04T03:51:49;34.27;;;17.97;;
20393;SDS011;10356;50.544;9.642;2023-03-04T03:54:17;35.23;;;18.87;;
20393;SDS011;10356;50.544;9.642;2023-03-04T03:56:43;33.90;;;19.13;;
20393;SDS011;10356;50.544;9.642;2023-03-04T03:59:10;35.23;;;19.07;;
20393;SDS011;10356;50.544;9.642;2023-03-04T04:01:37;30.73;;;18.07;;
20393;SDS011;10356;50.544;9.642;2023-03-04T04:04:03;33.53;;;18.43;;
20393;SDS011;10356;50.544;9.642;2023-03-04T04:06:30;30.97;;;17.00;;
20393;SDS011;10356;50.544;9.642;2023-03-04T04:08:57;29.63;;;18.13;;
20393;SDS011;10356;50.544;9.642;2023-03-04T04:11:25;29.10;;;17.27;;
20393;SDS011;10356;50.544;9.642;2023-03-04T04:13:52;28.47;;;16.83;;
20393;SDS011;10356;50.544;9.642;2023-03-04T04:16:19;29.60;;;16.60;;
20393;SDS011;10356;50.544;9.642;2023-03-04T04:18:45;29.47;;;16.97;;
20393;SDS011;10356;50.544;9.642;2023-03-04T04:21:12;30.73;;;17.17;;
20393;SDS011;10356;50.544;9.642;2023-03-04T04:23:38;27.97;;;16.73;;
20393;SDS011;10356;50.544;9.642;2023-03-04T04:26:05;33.67;;;18.37;;
20393;SDS011;10356;50.544;9.642;2023-03-04T04:28:33;29.83;;;16.67;;
20393;SDS011;10356;50.544;9.642;2023-03-04T04:31:00;30.23;;;17.17;;
20393;SDS011;10356;50.544;9.642;2023-03-04T04:33:29;26.20;;;16.17;;
20393;SDS011;10356;50.544;9.642;2023-03-04T04:35:55;28.10;;;16.13;;
20393;SDS011;10356;50.544;9.642;2023-03-04T04:38:22;31.90;;;16.93;;
20393;SDS011;10356;50.544;9.642;2023-03-04T04:40:49;31.40;;;17.33;;
20393;SDS011;10356;50.544;9.642;2023-03-04T04:43:16;24.63;;;15.60;;
20393;SDS011;10356;50.544;9.642;2023-03-04T04:45:44;28.27;;;16.10;;
20393;SDS011;10356;50.544;9.642;2023-03-04T04:48:11;28.23;;;16.77;;
20393;SDS011;10356;50.544;9.642;2023-03-04T04:50:38;28.20;;;16.13;;
20393;SDS011;10356;50.544;9.642;2023-03-04T04:53:04;28.97;;;17.73;;
20393;SDS011;10356;50.544;9.642;2023-03-04T04:55:32;28.17;;;16.63;;
20393;SDS011;10356;50.544;9.642;2023-03-04T04:57:59;30.00;;;17.07;;
20393;SDS011;10356;50.544;9.642;2023-03-04T05:00:25;30.10;;;17.07;;
20393;SDS011;10356;50.544;9.642;2023-03-04T05:02:54;30.07;;;16.17;;
20393;SDS011;10356;50.544;9.642;2023-03-04T05:05:20;25.80;;;14.07;;
20393;SDS011;10356;50.544;9.642;2023-03-04T05:07:47;24.40;;;14.87;;
20393;SDS011;10356;50.544;9.642;2023-03-04T05:10:13;26.67;;;14.73;;
20393;SDS011;10356;50.544;9.642;2023-03-04T05:12:40;22.63;;;14.70;;
20393;SDS011;10356;50.544;9.642;2023-03-04T05:15:07;100.33;;;55.60;;
20393;SDS011;10356;50.544;9.642;2023-03-04T05:17:33;212.40;;;103.63;;
20393;SDS011;10356;50.544;9.642;2023-03-04T05:20:01;119.17;;;58.20;;
20393;SDS011;10356;50.544;9.642;2023-03-04T05:22:31;259.80;;;127.73;;
20393;SDS011;10356;50.544;9.642;2023-03-04T05:24:57;433.37;;;239.37;;
20393;SDS011;10356;50.544;9.642;2023-03-04T05:27:24;211.10;;;125.27;;
20393;SDS011;10356;50.544;9.642;2023-03-04T05:29:50;67.50;;;38.23;;
20393;SDS011;10356;50.544;9.642;2023-03-04T05:32:18;56.50;;;30.73;;
20393;SDS011;10356;50.544;9.642;2023-03-04T05:34:44;30.10;;;18.80;;
20393;SDS011;10356;50.544;9.642;2023-03-04T05:37:12;31.63;;;16.43;;
20393;SDS011;10356;50.544;9.642;2023-03-04T05:39:39;30.70;;;15.73;;
20393;SDS011;10356;50.544;9.642;2023-03-04T05:42:05;62.10;;;55.30;;
20393;SDS011;10356;50.544;9.642;2023-03-04T05:44:32;40.13;;;33.70;;
20393;SDS011;10356;50.544;9.642;2023-03-04T05:46:58;25.37;;;17.57;;
20393;SDS011;10356;50.544;9.642;2023-03-04T05:49:25;28.33;;;16.80;;
20393;SDS011;10356;50.544;9.642;2023-03-04T05:51:51;26.60;;;15.87;;
20393;SDS011;10356;50.544;9.642;2023-03-04T05:54:19;25.60;;;15.47;;
20393;SDS011;10356;50.544;9.642;2023-03-04T05:56:46;30.13;;;16.57;;
20393;SDS011;10356;50.544;9.642;2023-03-04T05:59:13;27.87;;;15.83;;
20393;SDS011;10356;50.544;9.642;2023-03-04T06:01:44;22.37;;;14.07;;
20393;SDS011;10356;50.544;9.642;2023-03-04T06:04:10;26.17;;;14.03;;
20393;SDS011;10356;50.544;9.642;2023-03-04T06:06:37;23.60;;;13.40;;
20393;SDS011;10356;50.544;9.642;2023-03-04T06:09:04;22.60;;;13.87;;
20393;SDS011;10356;50.544;9.642;2023-03-04T06:11:31;31.20;;;15.83;;
20393;SDS011;10356;50.544;9.642;2023-03-04T06:13:58;22.37;;;14.00;;
20393;SDS011;10356;50.544;9.642;2023-03-04T06:16:25;26.37;;;14.77;;
20393;SDS011;10356;50.544;9.642;2023-03-04T06:18:51;26.30;;;15.90;;
20393;SDS011;10356;50.544;9.642;2023-03-04T06:21:18;25.63;;;13.67;;
20393;SDS011;10356;50.544;9.642;2023-03-04T06:23:44;24.27;;;14.43;;
20393;SDS011;10356;50.544;9.642;2023-03-04T06:26:11;78.23;;;49.63;;
20393;SDS011;10356;50.544;9.642;2023-03-04T06:28:40;25.30;;;15.50;;
20393;SDS011;10356;50.544;9.642;2023-03-04T06:31:07;60.33;;;35.73;;
20393;SDS011;10356;50.544;9.642;2023-03-04T06:33:34;31.03;;;17.13;;
20393;SDS011;10356;50.544;9.642;2023-03-04T06:36:01;26.10;;;13.90;;
20393;SDS011;10356;50.544;9.642;2023-03-04T06:38:27;27.97;;;15.40;;
20393;SDS011;10356;50.544;9.642;2023-03-04T06:40:54;34.07;;;19.20;;
20393;SDS011;10356;50.544;9.642;2023-03-04T06:43:21;25.10;;;16.33;;
20393;SDS011;10356;50.544;9.642;2023-03-04T06:45:49;25.93;;;12.80;;
20393;SDS011;10356;50.544;9.642;2023-03-04T06:48:15;28.00;;;13.47;;
20393;SDS011;10356;50.544;9.642;2023-03-04T06:50:42;26.30;;;12.87;;
20393;SDS011;10356;50.544;9.642;2023-03-04T06:53:08;28.17;;;11.87;;
20393;SDS011;10356;50.544;9.642;2023-03-04T06:55:35;24.73;;;13.00;;
20393;SDS011;10356;50.544;9.642;2023-03-04T06:58:01;31.60;;;12.83;;
20393;SDS011;10356;50.544;9.642;2023-03-04T07:00:28;27.60;;;12.53;;
20393;SDS011;10356;50.544;9.642;2023-03-04T07:02:56;23.37;;;11.73;;
20393;SDS011;10356;50.544;9.642;2023-03-04T07:05:23;19.93;;;10.57;;
20393;SDS011;10356;50.544;9.642;2023-03-04T07:07:50;30.37;;;12.27;;
20393;SDS011;10356;50.544;9.642;2023-03-04T07:10:16;25.60;;;12.87;;
20393;SDS011;10356;50.544;9.642;2023-03-04T07:12:43;26.80;;;11.33;;
20393;SDS011;10356;50.544;9.642;2023-03-04T07:15:10;18.97;;;10.50;;
20393;SDS011;10356;50.544;9.642;2023-03-04T07:17:37;27.33;;;11.87;;
20393;SDS011;10356;50.544;9.642;2023-03-04T07:20:06;24.70;;;11.00;;
20393;SDS011;10356;50.544;9.642;2023-03-04T07:22:33;20.17;;;10.53;;
20393;SDS011;10356;50.544;9.642;2023-03-04T07:25:00;16.93;;;10.07;;
20393;SDS011;10356;50.544;9.642;2023-03-04T07:27:26;22.80;;;10.20;;
20393;SDS011;10356;50.544;9.642;2023-03-04T07:29:53;22.20;;;10.17;;
20393;SDS011;10356;50.544;9.642;2023-03-04T07:32:22;24.70;;;11.43;;
20393;SDS011;10356;50.544;9.642;2023-03-04T07:34:48;25.03;;;10.50;;
20393;SDS011;10356;50.544;9.642;2023-03-04T07:37:16;21.43;;;11.60;;
20393;SDS011;10356;50.544;9.642;2023-03-04T07:39:43;24.50;;;11.20;;
20393;SDS011;10356;50.544;9.642;2023-03-04T07:42:10;26.77;;;11.30;;
20393;SDS011;10356;50.544;9.642;2023-03-04T07:44:36;22.53;;;11.37;;
20393;SDS011;10356;50.544;9.642;2023-03-04T07:47:03;175.07;;;59.47;;
20393;SDS011;10356;50.544;9.642;2023-03-04T07:49:30;29.90;;;14.07;;
20393;SDS011;10356;50.544;9.642;2023-03-04T07:51:56;31.30;;;11.33;;
20393;SDS011;10356;50.544;9.642;2023-03-04T07:54:24;23.57;;;12.33;;
20393;SDS011;10356;50.544;9.642;2023-03-04T07:56:51;25.27;;;11.20;;
20393;SDS011;10356;50.544;9.642;2023-03-04T07:59:18;28.80;;;11.27;;
20393;SDS011;10356;50.544;9.642;2023-03-04T08:01:44;28.40;;;15.97;;
20393;SDS011;10356;50.544;9.642;2023-03-04T08:04:11;35.97;;;16.50;;
20393;SDS011;10356;50.544;9.642;2023-03-04T08:06:38;19.17;;;9.93;;
20393;SDS011;10356;50.544;9.642;2023-03-04T08:09:06;26.27;;;13.07;;
20393;SDS011;10356;50.544;9.642;2023-03-04T08:11:36;24.70;;;10.90;;
20393;SDS011;10356;50.544;9.642;2023-03-04T08:14:03;25.27;;;13.07;;
20393;SDS011;10356;50.544;9.642;2023-03-04T08:16:29;23.50;;;10.27;;
20393;SDS011;10356;50.544;9.642;2023-03-04T08:18:57;25.23;;;11.13;;
20393;SDS011;10356;50.544;9.642;2023-03-04T08:21:28;22.67;;;11.33;;
20393;SDS011;10356;50.544;9.642;2023-03-04T08:23:56;32.23;;;12.87;;
20393;SDS011;10356;50.544;9.642;2023-03-04T08:26:26;26.67;;;10.47;;
20393;SDS011;10356;50.544;9.642;2023-03-04T08:28:56;24.53;;;11.37;;
20393;SDS011;10356;50.544;9.642;2023-03-04T08:31:23;25.73;;;9.43;;
20393;SDS011;10356;50.544;9.642;2023-03-04T08:33:50;22.97;;;9.20;;
20393;SDS011;10356;50.544;9.642;2023-03-04T08:36:16;28.13;;;11.37;;
20393;SDS011;10356;50.544;9.642;2023-03-04T08:38:43;24.43;;;12.57;;
20393;SDS011;10356;50.544;9.642;2023-03-04T08:41:10;25.73;;;9.90;;
20393;SDS011;10356;50.544;9.642;2023-03-04T08:43:36;20.37;;;9.10;;
20393;SDS011;10356;50.544;9.642;2023-03-04T08:46:04;24.90;;;10.47;;
20393;SDS011;10356;50.544;9.642;2023-03-04T08:48:31;21.43;;;10.37;;
20393;SDS011;10356;50.544;9.642;2023-03-04T08:50:58;24.07;;;9.47;;
20393;SDS011;10356;50.544;9.642;2023-03-04T08:53:25;22.77;;;9.07;;
20393;SDS011;10356;50.544;9.642;2023-03-04T08:55:51;24.90;;;11.10;;
20393;SDS011;10356;50.544;9.642;2023-03-04T08:58:19;79.83;;;28.37;;
20393;SDS011;10356;50.544;9.642;2023-03-04T09:00:46;41.97;;;16.33;;
20393;SDS011;10356;50.544;9.642;2023-03-04T09:03:17;37.70;;;13.67;;
20393;SDS011;10356;50.544;9.642;2023-03-04T09:05:44;69.63;;;24.33;;
20393;SDS011;10356;50.544;9.642;2023-03-04T09:08:12;33.90;;;12.80;;
20393;SDS011;10356;50.544;9.642;2023-03-04T09:10:38;34.63;;;12.87;;
20393;SDS011;10356;50.544;9.642;2023-03-04T09:13:06;38.47;;;12.63;;
20393;SDS011;10356;50.544;9.642;2023-03-04T09:15:35;66.63;;;24.77;;
20393;SDS011;10356;50.544;9.642;2023-03-04T09:18:02;82.70;;;27.50;;
20393;SDS011;10356;50.544;9.642;2023-03-04T09:20:31;68.70;;;24.50;;
20393;SDS011;10356;50.544;9.642;2023-03-04T09:22:58;43.57;;;16.60;;
20393;SDS011;10356;50.544;9.642;2023-03-04T09:25:24;68.23;;;21.63;;
20393;SDS011;10356;50.544;9.642;2023-03-04T09:27:51;65.97;;;23.17;;
20393;SDS011;10356;50.544;9.642;2023-03-04T09:30:19;33.03;;;13.60;;
20393;SDS011;10356;50.544;9.642;2023-03-04T09:32:46;72.13;;;25.20;;
20393;SDS011;10356;50.544;9.642;2023-03-04T09:35:13;66.90;;;21.70;;
20393;SDS011;10356;50.544;9.642;2023-03-04T09:37:52;86.20;;;25.53;;
20393;SDS011;10356;50.544;9.642;2023-03-04T09:40:20;119.50;;;33.57;;
20393;SDS011;10356;50.544;9.642;2023-03-04T09:42:49;71.90;;;22.53;;
20393;SDS011;10356;50.544;9.642;2023-03-04T09:45:20;50.60;;;17.27;;
20393;SDS011;10356;50.544;9.642;2023-03-04T09:47:52;113.73;;;31.57;;
20393;SDS011;10356;50.544;9.642;2023-03-04T09:50:20;42.13;;;14.60;;
20393;SDS011;10356;50.544;9.642;2023-03-04T09:52:56;29.23;;;9.77;;
20393;SDS011;10356;50.544;9.642;2023-03-04T09:55:33;78.40;;;24.73;;
20393;SDS011;10356;50.544;9.642;2023-03-04T09:58:04;52.67;;;15.37;;
20393;SDS011;10356;50.544;9.642;2023-03-04T10:00:40;52.63;;;18.83;;
20393;SDS011;10356;50.544;9.642;2023-03-04T10:03:13;22.53;;;8.80;;
20393;SDS011;10356;50.544;9.642;2023-03-04T10:05:48;24.83;;;8.40;;
20393;SDS011;10356;50.544;9.642;2023-03-04T10:08:26;31.73;;;10.10;;
20393;SDS011;10356;50.544;9.642;2023-03-04T10:11:01;123.67;;;34.27;;
20393;SDS011;10356;50.544;9.642;2023-03-04T10:13:34;80.07;;;24.70;;
20393;SDS011;10356;50.544;9.642;2023-03-04T10:16:05;20.23;;;8.67;;
20393;SDS011;10356;50.544;9.642;2023-03-04T10:18:40;98.57;;;30.00;;
20393;SDS011;10356;50.544;9.642;2023-03-04T10:21:15;77.20;;;24.33;;
20393;SDS011;10356;50.544;9.642;2023-03-04T10:23:50;17.67;;;7.63;;
20393;SDS011;10356;50.544;9.642;2023-03-04T10:26:18;44.53;;;15.07;;
20393;SDS011;10356;50.544;9.642;2023-03-04T10:28:46;34.87;;;9.00;;
20393;SDS011;10356;50.544;9.642;2023-03-04T10:31:18;25.60;;;9.90;;
20393;SDS011;10356;50.544;9.642;2023-03-04T10:33:49;29.43;;;8.87;;
20393;SDS011;10356;50.544;9.642;2023-03-04T10:39:11;19.73;;;6.90;;
20393;SDS011;10356;50.544;9.642;2023-03-04T10:41:43;42.93;;;15.90;;
20393;SDS011;10356;50.544;9.642;2023-03-04T10:44:16;35.73;;;11.27;;
20393;SDS011;10356;50.544;9.642;2023-03-04T10:46:46;22.60;;;8.00;;
20393;SDS011;10356;50.544;9.642;2023-03-04T10:49:18;28.00;;;9.40;;
20393;SDS011;10356;50.544;9.642;2023-03-04T10:51:45;35.80;;;11.97;;
20393;SDS011;10356;50.544;9.642;2023-03-04T10:56:58;8.87;;;4.10;;
20393;SDS011;10356;50.544;9.642;2023-03-04T10:59:34;72.80;;;23.73;;
20393;SDS011;10356;50.544;9.642;2023-03-04T11:02:14;55.03;;;18.53;;
20393;SDS011;10356;50.544;9.642;2023-03-04T11:04:46;19.10;;;7.07;;
20393;SDS011;10356;50.544;9.642;2023-03-04T11:07:17;24.83;;;9.30;;
20393;SDS011;10356;50.544;9.642;2023-03-04T11:09:45;23.73;;;8.23;;
20393;SDS011;10356;50.544;9.642;2023-03-04T11:12:13;21.40;;;7.13;;
20393;SDS011;10356;50.544;9.642;2023-03-04T11:14:41;10.00;;;3.83;;
20393;SDS011;10356;50.544;9.642;2023-03-04T11:17:17;24.63;;;8.93;;
20393;SDS011;10356;50.544;9.642;2023-03-04T11:19:47;30.60;;;8.17;;
20393;SDS011;10356;50.544;9.642;2023-03-04T11:22:17;31.10;;;9.57;;
20393;SDS011;10356;50.544;9.642;2023-03-04T11:24:55;8.60;;;3.60;;
20393;SDS011;10356;50.544;9.642;2023-03-04T11:27:27;9.93;;;3.77;;
20393;SDS011;10356;50.544;9.642;2023-03-04T11:30:03;45.13;;;13.70;;
20393;SDS011;10356;50.544;9.642;2023-03-04T11:32:42;99.47;;;28.10;;
20393;SDS011;10356;50.544;9.642;2023-03-04T11:35:14;11.37;;;4.37;;
20393;SDS011;10356;50.544;9.642;2023-03-04T11:37:50;18.60;;;6.17;;
20393;SDS011;10356;50.544;9.642;2023-03-04T11:40:34;12.73;;;4.87;;
20393;SDS011;10356;50.544;9.642;2023-03-04T11:43:05;14.10;;;5.57;;
20393;SDS011;10356;50.544;9.642;2023-03-04T11:45:44;12.17;;;6.43;;
20393;SDS011;10356;50.544;9.642;2023-03-04T11:48:32;13.13;;;6.73;;
20393;SDS011;10356;50.544;9.642;2023-03-04T11:51:12;22.40;;;14.33;;
20393;SDS011;10356;50.544;9.642;2023-03-04T11:53:50;6.80;;;5.27;;
20393;SDS011;10356;50.544;9.642;2023-03-04T11:56:31;14.97;;;8.67;;
20393;SDS011;10356;50.544;9.642;2023-03-04T11:59:05;16.87;;;14.43;;
20393;SDS011;10356;50.544;9.642;2023-03-04T12:01:50;10.00;;;4.87;;
20393;SDS011;10356;50.544;9.642;2023-03-04T12:04:39;9.53;;;3.70;;
20393;SDS011;10356;50.544;9.642;2023-03-04T12:07:30;10.10;;;4.83;;
20393;SDS011;10356;50.544;9.642;2023-03-04T12:10:12;27.27;;;17.50;;
20393;SDS011;10356;50.544;9.642;2023-03-04T12:12:52;16.20;;;4.53;;
20393;SDS011;10356;50.544;9.642;2023-03-04T12:15:30;7.87;;;2.47;;
20393;SDS011;10356;50.544;9.642;2023-03-04T12:18:16;6.97;;;4.10;;
20393;SDS011;10356;50.544;9.642;2023-03-04T12:21:03;7.70;;;3.67;;
20393;SDS011;10356;50.544;9.642;2023-03-04T12:23:43;5.20;;;2.70;;
20393;SDS011;10356;50.544;9.642;2023-03-04T12:26:24;8.53;;;6.00;;
20393;SDS011;10356;50.544;9.642;2023-03-04T12:29:00;5.53;;;2.93;;
20393;SDS011;10356;50.544;9.642;2023-03-04T12:31:34;6.37;;;2.80;;
20393;SDS011;10356;50.544;9.642;2023-03-04T12:36:58;5.87;;;2.40;;
20393;SDS011;10356;50.544;9.642;2023-03-04T12:39:49;5.50;;;2.13;;
20393;SDS011;10356;50.544;9.642;2023-03-04T12:42:33;4.70;;;1.90;;
20393;SDS011;10356;50.544;9.642;2023-03-04T12:45:08;8.20;;;2.30;;
20393;SDS011;10356;50.544;9.642;2023-03-04T12:47:45;6.00;;;2.00;;
20393;SDS011;10356;50.544;9.642;2023-03-04T12:50:23;6.17;;;2.00;;
20393;SDS011;10356;50.544;9.642;2023-03-04T12:52:59;5.87;;;2.20;;
20393;SDS011;10356;50.544;9.642;2023-03-04T12:55:35;3.73;;;1.93;;
20393;SDS011;10356;50.544;9.642;2023-03-04T12:58:04;6.33;;;2.03;;
20393;SDS011;10356;50.544;9.642;2023-03-04T13:00:42;5.77;;;2.00;;
20393;SDS011;10356;50.544;9.642;2023-03-04T13:03:16;5.90;;;2.23;;
20393;SDS011;10356;50.544;9.642;2023-03-04T13:06:05;5.47;;;2.07;;
20393;SDS011;10356;50.544;9.642;2023-03-04T13:08:44;7.47;;;2.30;;
20393;SDS011;10356;50.544;9.642;2023-03-04T13:14:27;6.93;;;3.90;;
20393;SDS011;10356;50.544;9.642;2023-03-04T13:16:58;4.00;;;2.47;;
20393;SDS011;10356;50.544;9.642;2023-03-04T13:19:42;4.93;;;2.40;;
20393;SDS011;10356;50.544;9.642;2023-03-04T13:33:48;5.13;;;2.40;;
20393;SDS011;10356;50.544;9.642;2023-03-04T13:36:33;3.83;;;2.33;;
20393;SDS011;10356;50.544;9.642;2023-03-04T13:42:03;3.67;;;1.60;;
20393;SDS011;10356;50.544;9.642;2023-03-04T13:47:29;4.80;;;2.20;;
20393;SDS011;10356;50.544;9.642;2023-03-04T13:52:53;5.60;;;1.80;;
20393;SDS011;10356;50.544;9.642;2023-03-04T13:55:32;8.33;;;3.80;;
20393;SDS011;10356;50.544;9.642;2023-03-04T13:58:00;5.43;;;2.30;;
20393;SDS011;10356;50.544;9.642;2023-03-04T14:00:43;2.13;;;1.50;;
20393;SDS011;10356;50.544;9.642;2023-03-04T14:03:21;4.43;;;1.50;;
20393;SDS011;10356;50.544;9.642;2023-03-04T14:08:50;4.47;;;1.67;;
20393;SDS011;10356;50.544;9.642;2023-03-04T14:11:21;2.57;;;1.57;;
20393;SDS011;10356;50.544;9.642;2023-03-04T14:13:51;3.40;;;2.13;;
20393;SDS011;10356;50.544;9.642;2023-03-04T14:16:21;4.77;;;1.57;;
20393;SDS011;10356;50.544;9.642;2023-03-04T14:19:01;4.37;;;1.40;;
20393;SDS011;10356;50.544;9.642;2023-03-04T14:21:32;5.17;;;1.37;;
20393;SDS011;10356;50.544;9.642;2023-03-04T14:24:02;3.13;;;1.27;;
20393;SDS011;10356;50.544;9.642;2023-03-04T14:26:31;4.57;;;1.10;;
20393;SDS011;10356;50.544;9.642;2023-03-04T14:28:58;3.60;;;1.40;;
20393;SDS011;10356;50.544;9.642;2023-03-04T14:31:27;1.67;;;1.20;;
20393;SDS011;10356;50.544;9.642;2023-03-04T14:33:56;1.93;;;1.20;;
20393;SDS011;10356;50.544;9.642;2023-03-04T14:36:26;15.27;;;7.53;;
20393;SDS011;10356;50.544;9.642;2023-03-04T14:38:56;2.67;;;1.50;;
20393;SDS011;10356;50.544;9.642;2023-03-04T14:41:26;2.30;;;1.87;;
20393;SDS011;10356;50.544;9.642;2023-03-04T14:43:57;4.23;;;1.57;;
20393;SDS011;10356;50.544;9.642;2023-03-04T14:46:29;4.90;;;1.50;;
20393;SDS011;10356;50.544;9.642;2023-03-04T14:48:59;2.40;;;1.10;;
20393;SDS011;10356;50.544;9.642;2023-03-04T14:51:28;2.27;;;1.30;;
20393;SDS011;10356;50.544;9.642;2023-03-04T14:53:58;2.70;;;1.13;;
20393;SDS011;10356;50.544;9.642;2023-03-04T14:56:28;4.37;;;2.10;;
20393;SDS011;10356;50.544;9.642;2023-03-04T14:58:56;4.83;;;1.70;;
20393;SDS011;10356;50.544;9.642;2023-03-04T15:01:27;2.43;;;1.50;;
20393;SDS011;10356;50.544;9.642;2023-03-04T15:03:56;2.03;;;1.23;;
20393;SDS011;10356;50.544;9.642;2023-03-04T15:06:26;4.10;;;1.67;;
20393;SDS011;10356;50.544;9.642;2023-03-04T15:08:56;2.23;;;1.70;;
20393;SDS011;10356;50.544;9.642;2023-03-04T15:11:27;6.83;;;1.27;;
20393;SDS011;10356;50.544;9.642;2023-03-04T15:13:56;3.97;;;2.00;;
20393;SDS011;10356;50.544;9.642;2023-03-04T15:16:24;2.50;;;1.50;;
20393;SDS011;10356;50.544;9.642;2023-03-04T15:18:52;2.63;;;1.30;;
20393;SDS011;10356;50.544;9.642;2023-03-04T15:21:28;2.43;;;1.53;;